sensor_id;sensor_type;location;lat;lon;timestamp;P1;durP1;ratioP1;P2;durP2;ratioP2
56381;SDS011;50261;51.150;4.470;2022-12-18T00:01:25;66.45;;;31.35;;
56381;SDS011;50261;51.150;4.470;2022-12-18T00:03:51;64.18;;;30.30;;
56381;SDS011;50261;51.150;4.470;2022-12-18T00:06:17;64.03;;;31.20;;
56381;SDS011;50261;51.150;4.470;2022-12-18T00:08:44;66.60;;;30.80;;
56381;SDS011;50261;51.150;4.470;2022-12-18T00:11:14;61.45;;;30.75;;
56381;SDS011;50261;51.150;4.470;2022-12-18T00:13:40;65.38;;;31.75;;
56381;SDS011;50261;51.150;4.470;2022-12-18T00:16:07;62.78;;;31.42;;
56381;SDS011;50261;51.150;4.470;2022-12-18T00:18:33;67.53;;;31.85;;
56381;SDS011;50261;51.150;4.470;2022-12-18T00:21:02;63.13;;;30.23;;
56381;SDS011;50261;51.150;4.470;2022-12-18T00:23:29;60.22;;;29.85;;
56381;SDS011;50261;51.150;4.470;2022-12-18T00:25:59;67.65;;;30.83;;
56381;SDS011;50261;51.150;4.470;2022-12-18T00:28:25;59.53;;;29.23;;
56381;SDS011;50261;51.150;4.470;2022-12-18T00:30:50;60.65;;;30.48;;
56381;SDS011;50261;51.150;4.470;2022-12-18T00:33:17;65.22;;;31.50;;
56381;SDS011;50261;51.150;4.470;2022-12-18T00:35:43;63.17;;;32.42;;
56381;SDS011;50261;51.150;4.470;2022-12-18T00:38:09;63.67;;;30.95;;
56381;SDS011;50261;51.150;4.470;2022-12-18T00:40:35;61.67;;;29.42;;
56381;SDS011;50261;51.150;4.470;2022-12-18T00:43:00;69.38;;;32.70;;
56381;SDS011;50261;51.150;4.470;2022-12-18T00:45:27;64.50;;;31.42;;
56381;SDS011;50261;51.150;4.470;2022-12-18T00:47:53;64.15;;;31.17;;
56381;SDS011;50261;51.150;4.470;2022-12-18T00:50:19;63.15;;;30.65;;
56381;SDS011;50261;51.150;4.470;2022-12-18T00:52:45;61.38;;;30.13;;
56381;SDS011;50261;51.150;4.470;2022-12-18T00:55:11;65.05;;;29.75;;
56381;SDS011;50261;51.150;4.470;2022-12-18T00:57:37;63.22;;;30.77;;
56381;SDS011;50261;51.150;4.470;2022-12-18T01:00:04;61.42;;;29.35;;
56381;SDS011;50261;51.150;4.470;2022-12-18T01:02:30;62.60;;;29.98;;
56381;SDS011;50261;51.150;4.470;2022-12-18T01:04:55;59.58;;;30.30;;
56381;SDS011;50261;51.150;4.470;2022-12-18T01:07:21;63.63;;;29.92;;
56381;SDS011;50261;51.150;4.470;2022-12-18T01:09:47;60.97;;;28.42;;
56381;SDS011;50261;51.150;4.470;2022-12-18T01:12:13;59.95;;;30.55;;
56381;SDS011;50261;51.150;4.470;2022-12-18T01:14:38;58.55;;;28.02;;
56381;SDS011;50261;51.150;4.470;2022-12-18T01:17:04;64.18;;;30.52;;
56381;SDS011;50261;51.150;4.470;2022-12-18T01:19:32;62.40;;;30.20;;
56381;SDS011;50261;51.150;4.470;2022-12-18T01:21:58;64.88;;;30.85;;
56381;SDS011;50261;51.150;4.470;2022-12-18T01:24:24;65.50;;;30.35;;
56381;SDS011;50261;51.150;4.470;2022-12-18T01:26:50;62.95;;;30.27;;
56381;SDS011;50261;51.150;4.470;2022-12-18T01:29:16;61.00;;;29.00;;
56381;SDS011;50261;51.150;4.470;2022-12-18T01:31:41;63.80;;;31.13;;
56381;SDS011;50261;51.150;4.470;2022-12-18T01:34:08;57.72;;;28.90;;
56381;SDS011;50261;51.150;4.470;2022-12-18T01:36:35;59.33;;;27.05;;
56381;SDS011;50261;51.150;4.470;2022-12-18T01:39:02;59.72;;;28.77;;
56381;SDS011;50261;51.150;4.470;2022-12-18T01:41:29;62.00;;;29.75;;
56381;SDS011;50261;51.150;4.470;2022-12-18T01:47:00;57.83;;;27.98;;
56381;SDS011;50261;51.150;4.470;2022-12-18T01:49:25;57.65;;;25.00;;
56381;SDS011;50261;51.150;4.470;2022-12-18T01:51:51;57.35;;;26.73;;
56381;SDS011;50261;51.150;4.470;2022-12-18T01:54:17;60.88;;;28.13;;
56381;SDS011;50261;51.150;4.470;2022-12-18T01:56:43;62.97;;;27.35;;
56381;SDS011;50261;51.150;4.470;2022-12-18T01:59:09;59.28;;;26.55;;
56381;SDS011;50261;51.150;4.470;2022-12-18T02:01:35;54.72;;;25.90;;
56381;SDS011;50261;51.150;4.470;2022-12-18T02:04:22;54.40;;;25.33;;
56381;SDS011;50261;51.150;4.470;2022-12-18T02:07:23;57.60;;;28.13;;
56381;SDS011;50261;51.150;4.470;2022-12-18T02:09:48;59.97;;;27.33;;
56381;SDS011;50261;51.150;4.470;2022-12-18T02:14:42;57.20;;;24.60;;
56381;SDS011;50261;51.150;4.470;2022-12-18T02:17:11;54.92;;;26.10;;
56381;SDS011;50261;51.150;4.470;2022-12-18T02:22:18;53.22;;;24.63;;
56381;SDS011;50261;51.150;4.470;2022-12-18T02:27:18;53.58;;;26.45;;
56381;SDS011;50261;51.150;4.470;2022-12-18T02:29:50;56.60;;;26.85;;
56381;SDS011;50261;51.150;4.470;2022-12-18T02:32:17;54.20;;;24.42;;
56381;SDS011;50261;51.150;4.470;2022-12-18T02:34:45;48.78;;;23.52;;
56381;SDS011;50261;51.150;4.470;2022-12-18T02:37:15;51.20;;;24.75;;
56381;SDS011;50261;51.150;4.470;2022-12-18T02:39:42;56.20;;;27.15;;
56381;SDS011;50261;51.150;4.470;2022-12-18T02:42:11;51.75;;;25.83;;
56381;SDS011;50261;51.150;4.470;2022-12-18T02:44:45;51.80;;;24.88;;
56381;SDS011;50261;51.150;4.470;2022-12-18T02:47:15;53.58;;;26.17;;
56381;SDS011;50261;51.150;4.470;2022-12-18T02:55:45;56.85;;;28.80;;
56381;SDS011;50261;51.150;4.470;2022-12-18T02:57:54;51.47;;;26.05;;
56381;SDS011;50261;51.150;4.470;2022-12-18T03:00:36;51.13;;;25.95;;
56381;SDS011;50261;51.150;4.470;2022-12-18T03:08:10;51.20;;;25.60;;
56381;SDS011;50261;51.150;4.470;2022-12-18T03:10:40;49.22;;;24.50;;
56381;SDS011;50261;51.150;4.470;2022-12-18T03:13:08;53.22;;;25.35;;
56381;SDS011;50261;51.150;4.470;2022-12-18T03:15:36;45.90;;;22.67;;
56381;SDS011;50261;51.150;4.470;2022-12-18T03:18:42;37.30;;;18.10;;
56381;SDS011;50261;51.150;4.470;2022-12-18T03:21:02;47.08;;;22.58;;
56381;SDS011;50261;51.150;4.470;2022-12-18T03:23:33;45.83;;;21.88;;
56381;SDS011;50261;51.150;4.470;2022-12-18T03:26:01;48.90;;;23.80;;
56381;SDS011;50261;51.150;4.470;2022-12-18T03:28:28;43.88;;;21.90;;
56381;SDS011;50261;51.150;4.470;2022-12-18T03:30:59;45.55;;;22.25;;
56381;SDS011;50261;51.150;4.470;2022-12-18T03:33:29;44.60;;;22.17;;
56381;SDS011;50261;51.150;4.470;2022-12-18T03:35:57;46.80;;;22.58;;
56381;SDS011;50261;51.150;4.470;2022-12-18T03:38:23;52.25;;;23.30;;
56381;SDS011;50261;51.150;4.470;2022-12-18T03:45:51;42.28;;;22.55;;
56381;SDS011;50261;51.150;4.470;2022-12-18T03:48:27;44.60;;;22.55;;
56381;SDS011;50261;51.150;4.470;2022-12-18T03:55:52;37.42;;;19.40;;
56381;SDS011;50261;51.150;4.470;2022-12-18T03:58:20;37.90;;;20.48;;
56381;SDS011;50261;51.150;4.470;2022-12-18T04:01:13;38.60;;;20.77;;
56381;SDS011;50261;51.150;4.470;2022-12-18T04:03:42;35.70;;;19.02;;
56381;SDS011;50261;51.150;4.470;2022-12-18T04:06:08;40.92;;;20.67;;
56381;SDS011;50261;51.150;4.470;2022-12-18T04:08:38;40.70;;;20.20;;
56381;SDS011;50261;51.150;4.470;2022-12-18T04:11:07;38.25;;;19.52;;
56381;SDS011;50261;51.150;4.470;2022-12-18T04:13:35;37.33;;;19.77;;
56381;SDS011;50261;51.150;4.470;2022-12-18T04:16:04;37.65;;;19.67;;
56381;SDS011;50261;51.150;4.470;2022-12-18T04:18:31;35.47;;;18.45;;
56381;SDS011;50261;51.150;4.470;2022-12-18T04:20:58;36.03;;;18.92;;
56381;SDS011;50261;51.150;4.470;2022-12-18T04:23:24;38.55;;;19.10;;
56381;SDS011;50261;51.150;4.470;2022-12-18T04:25:52;39.78;;;18.60;;
56381;SDS011;50261;51.150;4.470;2022-12-18T04:28:29;33.35;;;18.52;;
56381;SDS011;50261;51.150;4.470;2022-12-18T04:30:55;36.40;;;18.58;;
56381;SDS011;50261;51.150;4.470;2022-12-18T04:33:21;34.05;;;18.70;;
56381;SDS011;50261;51.150;4.470;2022-12-18T04:35:47;31.90;;;17.52;;
56381;SDS011;50261;51.150;4.470;2022-12-18T04:38:13;37.67;;;18.77;;
56381;SDS011;50261;51.150;4.470;2022-12-18T04:40:39;38.10;;;18.95;;
56381;SDS011;50261;51.150;4.470;2022-12-18T04:43:11;37.85;;;18.35;;
56381;SDS011;50261;51.150;4.470;2022-12-18T04:45:37;33.88;;;17.70;;
56381;SDS011;50261;51.150;4.470;2022-12-18T04:48:03;36.97;;;17.77;;
56381;SDS011;50261;51.150;4.470;2022-12-18T04:50:29;30.83;;;17.58;;
56381;SDS011;50261;51.150;4.470;2022-12-18T04:52:55;36.00;;;18.63;;
56381;SDS011;50261;51.150;4.470;2022-12-18T04:55:21;35.03;;;18.38;;
56381;SDS011;50261;51.150;4.470;2022-12-18T04:57:48;35.85;;;18.50;;
56381;SDS011;50261;51.150;4.470;2022-12-18T05:00:14;32.58;;;18.25;;
56381;SDS011;50261;51.150;4.470;2022-12-18T05:02:39;35.03;;;17.90;;
56381;SDS011;50261;51.150;4.470;2022-12-18T05:05:05;34.78;;;18.38;;
56381;SDS011;50261;51.150;4.470;2022-12-18T05:07:31;31.48;;;16.77;;
56381;SDS011;50261;51.150;4.470;2022-12-18T05:09:57;30.75;;;16.75;;
56381;SDS011;50261;51.150;4.470;2022-12-18T05:12:24;34.53;;;18.35;;
56381;SDS011;50261;51.150;4.470;2022-12-18T05:14:50;30.25;;;16.77;;
56381;SDS011;50261;51.150;4.470;2022-12-18T05:17:15;27.70;;;16.05;;
56381;SDS011;50261;51.150;4.470;2022-12-18T05:19:41;30.85;;;16.80;;
56381;SDS011;50261;51.150;4.470;2022-12-18T05:22:07;35.75;;;17.52;;
56381;SDS011;50261;51.150;4.470;2022-12-18T05:24:33;29.70;;;15.70;;
56381;SDS011;50261;51.150;4.470;2022-12-18T05:26:58;36.53;;;17.55;;
56381;SDS011;50261;51.150;4.470;2022-12-18T05:29:24;35.15;;;16.63;;
56381;SDS011;50261;51.150;4.470;2022-12-18T05:31:50;32.58;;;16.27;;
56381;SDS011;50261;51.150;4.470;2022-12-18T05:34:16;30.00;;;16.00;;
56381;SDS011;50261;51.150;4.470;2022-12-18T05:36:41;33.35;;;17.05;;
56381;SDS011;50261;51.150;4.470;2022-12-18T05:39:07;31.92;;;17.02;;
56381;SDS011;50261;51.150;4.470;2022-12-18T05:41:33;28.55;;;14.90;;
56381;SDS011;50261;51.150;4.470;2022-12-18T05:43:59;28.05;;;16.15;;
56381;SDS011;50261;51.150;4.470;2022-12-18T05:46:24;31.15;;;16.08;;
56381;SDS011;50261;51.150;4.470;2022-12-18T05:48:50;37.13;;;17.00;;
56381;SDS011;50261;51.150;4.470;2022-12-18T05:51:18;31.55;;;16.33;;
56381;SDS011;50261;51.150;4.470;2022-12-18T05:53:44;30.23;;;15.55;;
56381;SDS011;50261;51.150;4.470;2022-12-18T05:56:11;29.02;;;15.10;;
56381;SDS011;50261;51.150;4.470;2022-12-18T05:58:37;30.80;;;15.35;;
56381;SDS011;50261;51.150;4.470;2022-12-18T06:01:14;29.92;;;16.13;;
56381;SDS011;50261;51.150;4.470;2022-12-18T06:03:40;29.52;;;14.68;;
56381;SDS011;50261;51.150;4.470;2022-12-18T06:06:13;30.70;;;15.35;;
56381;SDS011;50261;51.150;4.470;2022-12-18T06:08:39;30.92;;;15.77;;
56381;SDS011;50261;51.150;4.470;2022-12-18T06:11:04;28.92;;;15.15;;
56381;SDS011;50261;51.150;4.470;2022-12-18T06:13:30;28.40;;;14.70;;
56381;SDS011;50261;51.150;4.470;2022-12-18T06:15:56;30.38;;;15.68;;
56381;SDS011;50261;51.150;4.470;2022-12-18T06:18:21;29.95;;;15.05;;
56381;SDS011;50261;51.150;4.470;2022-12-18T06:20:54;28.25;;;15.07;;
56381;SDS011;50261;51.150;4.470;2022-12-18T06:23:19;29.38;;;14.77;;
56381;SDS011;50261;51.150;4.470;2022-12-18T06:25:45;27.45;;;14.40;;
56381;SDS011;50261;51.150;4.470;2022-12-18T06:28:11;29.25;;;14.63;;
56381;SDS011;50261;51.150;4.470;2022-12-18T06:30:36;32.78;;;15.68;;
56381;SDS011;50261;51.150;4.470;2022-12-18T06:33:02;28.83;;;14.30;;
56381;SDS011;50261;51.150;4.470;2022-12-18T06:35:28;24.73;;;13.60;;
56381;SDS011;50261;51.150;4.470;2022-12-18T06:37:54;27.23;;;14.50;;
56381;SDS011;50261;51.150;4.470;2022-12-18T06:40:20;26.45;;;14.00;;
56381;SDS011;50261;51.150;4.470;2022-12-18T06:42:45;26.15;;;13.73;;
56381;SDS011;50261;51.150;4.470;2022-12-18T06:45:11;26.33;;;14.48;;
56381;SDS011;50261;51.150;4.470;2022-12-18T06:47:37;24.48;;;14.15;;
56381;SDS011;50261;51.150;4.470;2022-12-18T06:50:03;25.67;;;14.40;;
56381;SDS011;50261;51.150;4.470;2022-12-18T06:52:31;25.58;;;13.90;;
56381;SDS011;50261;51.150;4.470;2022-12-18T06:54:56;26.25;;;14.95;;
56381;SDS011;50261;51.150;4.470;2022-12-18T06:57:22;27.70;;;14.50;;
56381;SDS011;50261;51.150;4.470;2022-12-18T06:59:48;27.00;;;14.57;;
56381;SDS011;50261;51.150;4.470;2022-12-18T07:02:13;25.52;;;14.73;;
56381;SDS011;50261;51.150;4.470;2022-12-18T07:04:39;24.63;;;13.88;;
56381;SDS011;50261;51.150;4.470;2022-12-18T07:07:05;28.48;;;14.85;;
56381;SDS011;50261;51.150;4.470;2022-12-18T07:09:31;24.38;;;14.00;;
56381;SDS011;50261;51.150;4.470;2022-12-18T07:11:56;25.00;;;14.10;;
56381;SDS011;50261;51.150;4.470;2022-12-18T07:14:22;27.48;;;15.18;;
56381;SDS011;50261;51.150;4.470;2022-12-18T07:16:48;27.48;;;14.27;;
56381;SDS011;50261;51.150;4.470;2022-12-18T07:19:14;27.70;;;15.75;;
56381;SDS011;50261;51.150;4.470;2022-12-18T07:21:39;31.45;;;15.75;;
56381;SDS011;50261;51.150;4.470;2022-12-18T07:24:05;24.63;;;13.40;;
56381;SDS011;50261;51.150;4.470;2022-12-18T07:26:31;26.65;;;14.35;;
56381;SDS011;50261;51.150;4.470;2022-12-18T07:28:57;27.65;;;14.43;;
56381;SDS011;50261;51.150;4.470;2022-12-18T07:31:23;27.48;;;13.70;;
56381;SDS011;50261;51.150;4.470;2022-12-18T07:33:49;25.35;;;13.57;;
56381;SDS011;50261;51.150;4.470;2022-12-18T07:36:15;24.65;;;13.82;;
56381;SDS011;50261;51.150;4.470;2022-12-18T07:38:41;26.80;;;13.35;;
56381;SDS011;50261;51.150;4.470;2022-12-18T07:41:11;23.75;;;13.63;;
56381;SDS011;50261;51.150;4.470;2022-12-18T07:43:37;23.35;;;13.60;;
56381;SDS011;50261;51.150;4.470;2022-12-18T07:46:03;25.98;;;13.63;;
56381;SDS011;50261;51.150;4.470;2022-12-18T07:48:29;23.23;;;12.57;;
56381;SDS011;50261;51.150;4.470;2022-12-18T07:50:59;25.02;;;13.60;;
56381;SDS011;50261;51.150;4.470;2022-12-18T07:53:25;24.08;;;13.05;;
56381;SDS011;50261;51.150;4.470;2022-12-18T07:55:58;23.77;;;13.13;;
56381;SDS011;50261;51.150;4.470;2022-12-18T07:58:23;26.30;;;13.98;;
56381;SDS011;50261;51.150;4.470;2022-12-18T08:00:49;25.15;;;13.90;;
56381;SDS011;50261;51.150;4.470;2022-12-18T08:03:14;23.38;;;13.40;;
56381;SDS011;50261;51.150;4.470;2022-12-18T08:05:40;23.92;;;13.43;;
56381;SDS011;50261;51.150;4.470;2022-12-18T08:08:05;22.90;;;12.38;;
56381;SDS011;50261;51.150;4.470;2022-12-18T08:10:31;21.73;;;13.48;;
56381;SDS011;50261;51.150;4.470;2022-12-18T08:12:56;26.88;;;13.60;;
56381;SDS011;50261;51.150;4.470;2022-12-18T08:15:22;23.67;;;13.68;;
56381;SDS011;50261;51.150;4.470;2022-12-18T08:17:48;27.35;;;13.60;;
56381;SDS011;50261;51.150;4.470;2022-12-18T08:20:14;24.67;;;13.32;;
56381;SDS011;50261;51.150;4.470;2022-12-18T08:22:43;24.10;;;13.82;;
56381;SDS011;50261;51.150;4.470;2022-12-18T08:25:09;24.85;;;13.55;;
56381;SDS011;50261;51.150;4.470;2022-12-18T08:27:35;26.33;;;13.32;;
56381;SDS011;50261;51.150;4.470;2022-12-18T08:30:02;27.92;;;13.85;;
56381;SDS011;50261;51.150;4.470;2022-12-18T08:32:28;23.95;;;12.68;;
56381;SDS011;50261;51.150;4.470;2022-12-18T08:34:54;26.63;;;12.90;;
56381;SDS011;50261;51.150;4.470;2022-12-18T08:37:19;19.85;;;11.65;;
56381;SDS011;50261;51.150;4.470;2022-12-18T08:39:45;21.98;;;12.13;;
56381;SDS011;50261;51.150;4.470;2022-12-18T08:42:11;22.73;;;12.55;;
56381;SDS011;50261;51.150;4.470;2022-12-18T08:44:55;20.23;;;11.32;;
56381;SDS011;50261;51.150;4.470;2022-12-18T08:47:20;22.73;;;12.25;;
56381;SDS011;50261;51.150;4.470;2022-12-18T08:49:46;21.10;;;11.43;;
56381;SDS011;50261;51.150;4.470;2022-12-18T08:52:11;19.83;;;11.65;;
56381;SDS011;50261;51.150;4.470;2022-12-18T08:54:37;23.02;;;12.45;;
56381;SDS011;50261;51.150;4.470;2022-12-18T08:57:02;24.05;;;12.23;;
56381;SDS011;50261;51.150;4.470;2022-12-18T08:59:28;20.65;;;11.63;;
56381;SDS011;50261;51.150;4.470;2022-12-18T09:01:54;22.85;;;12.15;;
56381;SDS011;50261;51.150;4.470;2022-12-18T09:04:20;22.73;;;12.13;;
56381;SDS011;50261;51.150;4.470;2022-12-18T09:06:45;23.85;;;12.45;;
56381;SDS011;50261;51.150;4.470;2022-12-18T09:09:11;22.17;;;12.38;;
56381;SDS011;50261;51.150;4.470;2022-12-18T09:11:37;23.45;;;11.95;;
56381;SDS011;50261;51.150;4.470;2022-12-18T09:14:02;22.60;;;11.98;;
56381;SDS011;50261;51.150;4.470;2022-12-18T09:16:29;21.58;;;12.15;;
56381;SDS011;50261;51.150;4.470;2022-12-18T09:18:55;21.23;;;12.18;;
56381;SDS011;50261;51.150;4.470;2022-12-18T09:21:25;20.33;;;11.43;;
56381;SDS011;50261;51.150;4.470;2022-12-18T09:23:51;22.40;;;12.23;;
56381;SDS011;50261;51.150;4.470;2022-12-18T09:26:17;23.85;;;11.93;;
56381;SDS011;50261;51.150;4.470;2022-12-18T09:28:43;19.83;;;12.05;;
56381;SDS011;50261;51.150;4.470;2022-12-18T09:31:10;20.10;;;12.10;;
56381;SDS011;50261;51.150;4.470;2022-12-18T09:33:36;19.60;;;11.48;;
56381;SDS011;50261;51.150;4.470;2022-12-18T09:36:03;20.40;;;12.18;;
56381;SDS011;50261;51.150;4.470;2022-12-18T09:38:29;19.48;;;11.25;;
56381;SDS011;50261;51.150;4.470;2022-12-18T09:43:43;22.08;;;11.60;;
56381;SDS011;50261;51.150;4.470;2022-12-18T09:46:11;20.02;;;12.95;;
56381;SDS011;50261;51.150;4.470;2022-12-18T09:48:42;19.98;;;11.75;;
56381;SDS011;50261;51.150;4.470;2022-12-18T09:51:16;21.05;;;12.45;;
56381;SDS011;50261;51.150;4.470;2022-12-18T09:53:47;20.10;;;11.73;;
56381;SDS011;50261;51.150;4.470;2022-12-18T09:56:16;19.33;;;12.23;;
56381;SDS011;50261;51.150;4.470;2022-12-18T09:58:46;24.05;;;13.35;;
56381;SDS011;50261;51.150;4.470;2022-12-18T10:01:14;24.20;;;13.00;;
56381;SDS011;50261;51.150;4.470;2022-12-18T10:03:43;18.70;;;11.80;;
56381;SDS011;50261;51.150;4.470;2022-12-18T10:06:16;26.13;;;14.13;;
56381;SDS011;50261;51.150;4.470;2022-12-18T10:09:01;22.58;;;13.05;;
56381;SDS011;50261;51.150;4.470;2022-12-18T10:24:43;19.98;;;11.45;;
56381;SDS011;50261;51.150;4.470;2022-12-18T10:27:14;18.65;;;11.27;;
56381;SDS011;50261;51.150;4.470;2022-12-18T10:29:41;21.50;;;11.90;;
56381;SDS011;50261;51.150;4.470;2022-12-18T10:32:09;19.98;;;11.50;;
56381;SDS011;50261;51.150;4.470;2022-12-18T10:34:38;18.60;;;11.48;;
56381;SDS011;50261;51.150;4.470;2022-12-18T10:37:06;24.60;;;12.50;;
56381;SDS011;50261;51.150;4.470;2022-12-18T10:39:38;19.83;;;12.65;;
56381;SDS011;50261;51.150;4.470;2022-12-18T10:42:11;21.85;;;13.00;;
56381;SDS011;50261;51.150;4.470;2022-12-18T10:44:38;21.70;;;11.68;;
56381;SDS011;50261;51.150;4.470;2022-12-18T10:47:04;21.77;;;12.48;;
56381;SDS011;50261;51.150;4.470;2022-12-18T10:49:32;20.40;;;12.43;;
56381;SDS011;50261;51.150;4.470;2022-12-18T10:54:30;18.52;;;11.73;;
56381;SDS011;50261;51.150;4.470;2022-12-18T10:57:42;19.10;;;11.45;;
56381;SDS011;50261;51.150;4.470;2022-12-18T10:59:52;18.92;;;10.63;;
56381;SDS011;50261;51.150;4.470;2022-12-18T11:02:33;18.92;;;11.57;;
56381;SDS011;50261;51.150;4.470;2022-12-18T11:04:59;17.42;;;10.73;;
56381;SDS011;50261;51.150;4.470;2022-12-18T11:07:25;23.45;;;12.43;;
56381;SDS011;50261;51.150;4.470;2022-12-18T11:10:00;20.90;;;12.82;;
56381;SDS011;50261;51.150;4.470;2022-12-18T11:12:26;20.30;;;12.32;;
56381;SDS011;50261;51.150;4.470;2022-12-18T11:14:54;20.08;;;12.35;;
56381;SDS011;50261;51.150;4.470;2022-12-18T11:17:23;18.45;;;11.65;;
56381;SDS011;50261;51.150;4.470;2022-12-18T11:19:54;26.35;;;12.93;;
56381;SDS011;50261;51.150;4.470;2022-12-18T11:22:21;21.67;;;12.25;;
56381;SDS011;50261;51.150;4.470;2022-12-18T11:27:22;23.70;;;11.73;;
56381;SDS011;50261;51.150;4.470;2022-12-18T11:29:49;22.08;;;11.52;;
56381;SDS011;50261;51.150;4.470;2022-12-18T11:34:48;17.33;;;11.60;;
56381;SDS011;50261;51.150;4.470;2022-12-18T11:37:15;19.10;;;12.30;;
56381;SDS011;50261;51.150;4.470;2022-12-18T11:39:54;19.38;;;11.73;;
56381;SDS011;50261;51.150;4.470;2022-12-18T11:42:34;17.15;;;11.13;;
56381;SDS011;50261;51.150;4.470;2022-12-18T11:47:40;17.33;;;11.43;;
56381;SDS011;50261;51.150;4.470;2022-12-18T11:50:16;19.48;;;12.05;;
56381;SDS011;50261;51.150;4.470;2022-12-18T11:55:12;18.77;;;11.38;;
56381;SDS011;50261;51.150;4.470;2022-12-18T11:57:55;20.13;;;11.57;;
56381;SDS011;50261;51.150;4.470;2022-12-18T12:00:23;18.15;;;11.13;;
56381;SDS011;50261;51.150;4.470;2022-12-18T12:05:40;18.98;;;11.20;;
56381;SDS011;50261;51.150;4.470;2022-12-18T12:15:50;19.92;;;12.73;;
56381;SDS011;50261;51.150;4.470;2022-12-18T12:26:03;21.67;;;12.57;;
56381;SDS011;50261;51.150;4.470;2022-12-18T12:28:44;18.90;;;12.40;;
56381;SDS011;50261;51.150;4.470;2022-12-18T12:33:53;18.60;;;12.00;;
56381;SDS011;50261;51.150;4.470;2022-12-18T12:36:39;20.75;;;12.43;;
56381;SDS011;50261;51.150;4.470;2022-12-18T12:39:07;18.98;;;11.48;;
56381;SDS011;50261;51.150;4.470;2022-12-18T12:41:34;19.08;;;12.15;;
56381;SDS011;50261;51.150;4.470;2022-12-18T12:44:27;17.70;;;12.00;;
56381;SDS011;50261;51.150;4.470;2022-12-18T12:46:56;18.85;;;11.82;;
56381;SDS011;50261;51.150;4.470;2022-12-18T12:49:22;20.85;;;12.45;;
56381;SDS011;50261;51.150;4.470;2022-12-18T12:51:52;20.75;;;12.43;;
56381;SDS011;50261;51.150;4.470;2022-12-18T12:54:19;24.50;;;13.15;;
56381;SDS011;50261;51.150;4.470;2022-12-18T13:01:54;22.60;;;12.68;;
56381;SDS011;50261;51.150;4.470;2022-12-18T13:10:26;22.45;;;13.45;;
56381;SDS011;50261;51.150;4.470;2022-12-18T13:12:32;20.15;;;12.35;;
56381;SDS011;50261;51.150;4.470;2022-12-18T13:15:23;21.00;;;13.10;;
56381;SDS011;50261;51.150;4.470;2022-12-18T13:18:02;20.05;;;13.27;;
56381;SDS011;50261;51.150;4.470;2022-12-18T13:20:32;23.15;;;13.00;;
56381;SDS011;50261;51.150;4.470;2022-12-18T13:22:59;23.83;;;14.90;;
56381;SDS011;50261;51.150;4.470;2022-12-18T13:25:34;22.33;;;13.93;;
56381;SDS011;50261;51.150;4.470;2022-12-18T13:45:42;21.48;;;13.52;;
56381;SDS011;50261;51.150;4.470;2022-12-18T13:48:19;20.70;;;13.93;;
56381;SDS011;50261;51.150;4.470;2022-12-18T13:50:56;24.15;;;14.05;;
56381;SDS011;50261;51.150;4.470;2022-12-18T13:53:23;22.77;;;14.48;;
56381;SDS011;50261;51.150;4.470;2022-12-18T13:55:50;21.02;;;13.43;;
56381;SDS011;50261;51.150;4.470;2022-12-18T13:58:16;22.90;;;14.20;;
56381;SDS011;50261;51.150;4.470;2022-12-18T14:00:42;23.30;;;13.98;;
56381;SDS011;50261;51.150;4.470;2022-12-18T14:03:24;21.33;;;13.82;;
56381;SDS011;50261;51.150;4.470;2022-12-18T14:05:55;25.13;;;14.10;;
56381;SDS011;50261;51.150;4.470;2022-12-18T14:08:21;24.77;;;13.98;;
56381;SDS011;50261;51.150;4.470;2022-12-18T14:10:47;21.08;;;13.52;;
56381;SDS011;50261;51.150;4.470;2022-12-18T14:13:24;23.73;;;14.40;;
56381;SDS011;50261;51.150;4.470;2022-12-18T14:15:52;19.67;;;13.50;;
56381;SDS011;50261;51.150;4.470;2022-12-18T14:20:48;24.17;;;13.93;;
56381;SDS011;50261;51.150;4.470;2022-12-18T14:25:59;23.60;;;13.98;;
56381;SDS011;50261;51.150;4.470;2022-12-18T14:28:25;24.33;;;15.25;;
56381;SDS011;50261;51.150;4.470;2022-12-18T14:30:51;23.60;;;14.95;;
56381;SDS011;50261;51.150;4.470;2022-12-18T14:33:19;26.63;;;14.85;;
56381;SDS011;50261;51.150;4.470;2022-12-18T14:35:52;20.95;;;14.55;;
56381;SDS011;50261;51.150;4.470;2022-12-18T14:38:25;23.02;;;14.57;;
56381;SDS011;50261;51.150;4.470;2022-12-18T14:40:52;23.23;;;14.82;;
56381;SDS011;50261;51.150;4.470;2022-12-18T14:43:18;23.00;;;15.43;;
56381;SDS011;50261;51.150;4.470;2022-12-18T14:45:44;27.10;;;16.02;;
56381;SDS011;50261;51.150;4.470;2022-12-18T14:50:37;23.48;;;15.32;;
56381;SDS011;50261;51.150;4.470;2022-12-18T14:53:03;30.77;;;18.48;;
56381;SDS011;50261;51.150;4.470;2022-12-18T14:55:29;29.20;;;19.27;;
56381;SDS011;50261;51.150;4.470;2022-12-18T14:57:55;35.40;;;24.70;;
56381;SDS011;50261;51.150;4.470;2022-12-18T15:00:22;33.85;;;22.55;;
56381;SDS011;50261;51.150;4.470;2022-12-18T15:02:49;26.92;;;21.25;;
56381;SDS011;50261;51.150;4.470;2022-12-18T15:05:17;28.85;;;20.02;;
56381;SDS011;50261;51.150;4.470;2022-12-18T15:07:50;24.75;;;15.77;;
56381;SDS011;50261;51.150;4.470;2022-12-18T15:15:45;27.88;;;17.45;;
56381;SDS011;50261;51.150;4.470;2022-12-18T15:20:40;26.92;;;17.17;;
56381;SDS011;50261;51.150;4.470;2022-12-18T15:26:12;26.95;;;16.48;;
56381;SDS011;50261;51.150;4.470;2022-12-18T15:33:37;27.27;;;17.92;;
56381;SDS011;50261;51.150;4.470;2022-12-18T15:36:04;27.40;;;16.92;;
56381;SDS011;50261;51.150;4.470;2022-12-18T15:38:30;31.50;;;20.67;;
56381;SDS011;50261;51.150;4.470;2022-12-18T15:40:55;29.65;;;18.83;;
56381;SDS011;50261;51.150;4.470;2022-12-18T15:43:22;37.63;;;25.05;;
56381;SDS011;50261;51.150;4.470;2022-12-18T15:46:01;26.90;;;15.23;;
56381;SDS011;50261;51.150;4.470;2022-12-18T15:48:27;27.73;;;17.65;;
56381;SDS011;50261;51.150;4.470;2022-12-18T15:50:53;31.08;;;17.58;;
56381;SDS011;50261;51.150;4.470;2022-12-18T15:53:22;24.88;;;17.27;;
56381;SDS011;50261;51.150;4.470;2022-12-18T15:55:48;28.85;;;17.85;;
56381;SDS011;50261;51.150;4.470;2022-12-18T15:58:32;27.77;;;16.83;;
56381;SDS011;50261;51.150;4.470;2022-12-18T16:00:58;30.10;;;17.90;;
56381;SDS011;50261;51.150;4.470;2022-12-18T16:03:25;27.35;;;17.02;;
56381;SDS011;50261;51.150;4.470;2022-12-18T16:05:50;29.33;;;17.88;;
56381;SDS011;50261;51.150;4.470;2022-12-18T16:08:16;30.75;;;17.27;;
56381;SDS011;50261;51.150;4.470;2022-12-18T16:10:42;33.00;;;18.40;;
56381;SDS011;50261;51.150;4.470;2022-12-18T16:13:10;27.83;;;17.70;;
56381;SDS011;50261;51.150;4.470;2022-12-18T16:15:36;28.27;;;18.25;;
56381;SDS011;50261;51.150;4.470;2022-12-18T16:18:01;30.92;;;17.42;;
56381;SDS011;50261;51.150;4.470;2022-12-18T16:20:27;30.20;;;18.40;;
56381;SDS011;50261;51.150;4.470;2022-12-18T16:22:53;30.20;;;18.08;;
56381;SDS011;50261;51.150;4.470;2022-12-18T16:27:44;34.45;;;18.65;;
56381;SDS011;50261;51.150;4.470;2022-12-18T16:30:14;30.13;;;18.23;;
56381;SDS011;50261;51.150;4.470;2022-12-18T16:32:39;31.38;;;17.17;;
56381;SDS011;50261;51.150;4.470;2022-12-18T16:35:05;30.60;;;18.60;;
56381;SDS011;50261;51.150;4.470;2022-12-18T16:37:31;31.77;;;18.73;;
56381;SDS011;50261;51.150;4.470;2022-12-18T16:39:57;33.88;;;18.73;;
56381;SDS011;50261;51.150;4.470;2022-12-18T16:42:22;29.27;;;18.50;;